Aeroporto :
LOGIN :

Iscrizione | Disclaimer

   EN    FR    IT 

 










Sommario :    VFR   VFR Marginale   IFR   IFR Intensivo   IFR Molto Intensivo
Visibilità : 
Base nubi : 
>= 8 km
>= 3000ft
5 / 8 km
1000 / 3000 ft
1500m / 5 km
500 / 1000 ft
800 / 1500m
200 / 500 ft
< 800m
< 200 ft
Simboli :   Temporali  Nebbia  Neve Forte  Precipitazioni Forti  Vento > 20 kt
SIGMETs :   Varie  Temporali  Ghiacco  Turbolenza  Onda orograficha  Ceneri Vulcaniche






- Altitudine del aeroporto : 412 ft
- Codice IATA : ORE


LFOJ - Orleans

ULTIMO METAR :
  • 240830Z AUTO 33010KT 9999 FEW024 SCT044 BKN058 08/03 Q1016 NOSIG

METARs OBSOLETI :
  • 240800Z AUTO 33011KT CAVOK 08/04 Q1016 NOSIG
  • 240730Z AUTO 33009KT 9999 BKN014 OVC060 07/05 Q1016 BECMG BKN035
  • 240700Z AUTO 33009KT 9999 BKN014 BKN024 OVC068 07/05 Q1016 BECMG BKN035
  • 240630Z AUTO 32006KT 9999 FEW021 OVC070 07/05 Q1016 NOSIG
  • 240600Z AUTO 32005KT CAVOK 06/05 Q1016 NOSIG
  • 240530Z AUTO 31005KT 9000 -RA FEW011 BKN042 OVC050 06/05 Q1016 NOSIG
  • 240500Z AUTO 30006KT 9999 BKN046 OVC072 05/04 Q1016 TEMPO 4000 -RA
  • 240430Z AUTO 30006KT 9999 BKN045 BKN054 OVC074 05/04 Q1016 TEMPO 4000 -RA
  • 240400Z AUTO 29006KT 9999 FEW049 OVC074 05/04 Q1016 TEMPO 4000 -RA

TAF TAF LFOJ
Valido dal 24 a 09 ore il 25 a 09 ore UTC


240800Z 2409/2509 33012KT CAVOK TX12/2415Z TNM00/2505Z
TEMPO 2414/2417 32015G25KT 4000 -SHRA BKN040TCU



MetMap, La meteo Aeronautica in un colpo d'occhio ! - Copyright ORBIFLY Dicembre 2007 - Disclaimer

ORBIFLY MET'MAP TEAM :

Programmazione e sviluppo : Alexandra Zaïnal
Concezione : Baudouin d'Aumeries
Supporto tecnico e logistico : Manuel Goepfert
Aiuto : Marc-Olivier Méhu
Aiuto per la traduzione : Arnaldo La Scala




FONTI E CREDITI :

   NOAA